createdAt,value
2019-01-27T00:01:40.657Z,9.90
2019-01-27T00:04:11.999Z,9.90
2019-01-27T00:06:43.564Z,9.90
2019-01-27T00:09:14.956Z,9.90
2019-01-27T00:11:46.482Z,10.00
2019-01-27T00:14:17.989Z,9.90
2019-01-27T00:16:50.419Z,9.90
2019-01-27T00:19:21.981Z,9.80
2019-01-27T00:21:55.560Z,9.80
2019-01-27T00:24:27.103Z,9.80
2019-01-27T00:27:00.009Z,9.70
2019-01-27T00:29:31.575Z,9.70
2019-01-27T00:32:14.505Z,9.70
2019-01-27T00:34:46.019Z,9.70
2019-01-27T00:37:17.305Z,9.60
2019-01-27T00:39:48.652Z,9.60
2019-01-27T00:42:20.203Z,9.60
2019-01-27T00:44:51.763Z,9.50
2019-01-27T00:47:24.175Z,9.50
2019-01-27T00:49:55.905Z,9.50
2019-01-27T00:52:27.632Z,9.40
2019-01-27T00:54:59.888Z,9.40
2019-01-27T00:57:31.256Z,9.40
2019-01-27T01:00:03.564Z,9.40
2019-01-27T01:02:35.158Z,9.30
2019-01-27T01:05:08.052Z,9.30
2019-01-27T01:07:39.908Z,9.30
2019-01-27T01:10:12.811Z,9.30
2019-01-27T01:12:44.460Z,9.20
2019-01-27T01:15:16.303Z,9.20
2019-01-27T01:17:48.275Z,9.20
2019-01-27T01:20:21.201Z,9.20
2019-01-27T01:22:52.640Z,9.30
2019-01-27T01:25:24.760Z,9.30
2019-01-27T01:27:56.251Z,9.20
2019-01-27T01:30:29.564Z,9.20
2019-01-27T01:33:01.264Z,9.20
2019-01-27T01:35:32.984Z,9.20
2019-01-27T01:38:04.538Z,9.20
2019-01-27T01:40:36.427Z,9.20
2019-01-27T01:43:07.591Z,9.20
2019-01-27T01:45:39.192Z,9.20
2019-01-27T01:48:10.745Z,9.20
2019-01-27T01:50:42.216Z,9.10
2019-01-27T01:53:14.544Z,9.10
2019-01-27T01:55:46.136Z,9.20
2019-01-27T01:58:18.187Z,9.10
2019-01-27T02:00:49.855Z,9.10
2019-01-27T02:03:21.692Z,9.10
2019-01-27T02:05:53.293Z,9.10
2019-01-27T02:08:26.065Z,9.10
2019-01-27T02:10:57.960Z,9.10
2019-01-27T02:13:29.583Z,9.10
2019-01-27T02:16:08.683Z,9.10
2019-01-27T02:18:41.196Z,9.00
2019-01-27T02:21:12.631Z,9.00
2019-01-27T02:23:44.933Z,9.00
2019-01-27T02:26:16.299Z,8.90
2019-01-27T02:28:47.978Z,8.90
2019-01-27T02:31:20.606Z,8.90
2019-01-27T02:33:52.225Z,8.90
2019-01-27T02:36:23.803Z,8.90
2019-01-27T02:38:55.450Z,8.90
2019-01-27T02:41:27.171Z,8.90
2019-01-27T02:43:58.840Z,8.80
2019-01-27T02:46:30.279Z,8.90
2019-01-27T02:49:01.893Z,8.80
2019-01-27T02:51:34.829Z,8.80
2019-01-27T02:54:07.231Z,8.80
2019-01-27T02:56:39.638Z,8.80
2019-01-27T02:59:11.376Z,8.80
2019-01-27T03:01:42.972Z,8.80
2019-01-27T03:04:14.280Z,8.80
2019-01-27T03:06:56.718Z,8.70
2019-01-27T03:09:44.066Z,8.70
2019-01-27T03:12:15.612Z,8.70
2019-01-27T03:14:46.982Z,8.70
2019-01-27T03:17:20.731Z,8.70
2019-01-27T03:19:52.193Z,8.70
2019-01-27T03:22:24.079Z,8.80
2019-01-27T03:24:55.612Z,8.80
2019-01-27T03:27:27.280Z,8.80
2019-01-27T03:29:58.651Z,8.70
2019-01-27T03:32:30.208Z,8.70
2019-01-27T03:35:01.802Z,8.70
2019-01-27T03:37:33.107Z,8.70
2019-01-27T03:40:05.214Z,8.70
2019-01-27T03:42:36.923Z,8.70
2019-01-27T03:45:09.637Z,8.70
2019-01-27T03:47:42.234Z,8.60
2019-01-27T03:50:15.451Z,8.60
2019-01-27T03:52:47.017Z,8.60
2019-01-27T03:55:19.201Z,8.60
2019-01-27T03:57:50.574Z,8.60
2019-01-27T04:00:22.184Z,8.60
2019-01-27T04:02:54.017Z,8.60
2019-01-27T04:05:25.347Z,8.60
2019-01-27T04:07:56.815Z,8.60
2019-01-27T04:10:28.560Z,8.60
2019-01-27T04:13:00.208Z,8.60
2019-01-27T04:15:31.721Z,8.60
2019-01-27T04:18:03.595Z,8.60
2019-01-27T04:20:35.031Z,8.60
2019-01-27T04:23:06.653Z,8.60
2019-01-27T04:25:37.866Z,8.60
2019-01-27T04:28:09.452Z,8.60
2019-01-27T04:30:40.891Z,8.60
2019-01-27T04:33:12.517Z,8.60
2019-01-27T04:35:43.911Z,8.60
2019-01-27T04:38:15.462Z,8.60
2019-01-27T04:40:47.060Z,8.60
2019-01-27T04:43:19.821Z,8.60
2019-01-27T04:45:51.634Z,8.60
2019-01-27T04:48:23.179Z,8.60
2019-01-27T04:50:54.645Z,8.60
2019-01-27T04:53:25.990Z,8.60
2019-01-27T04:55:57.488Z,8.60
2019-01-27T04:58:29.085Z,8.60
2019-01-27T05:01:00.478Z,8.60
2019-01-27T05:04:06.750Z,8.60
2019-01-27T05:06:38.390Z,8.60
2019-01-27T05:09:10.791Z,8.60
2019-01-27T05:11:42.153Z,8.60
2019-01-27T05:14:13.840Z,8.60
2019-01-27T05:16:45.202Z,8.70
2019-01-27T05:19:16.718Z,8.70
2019-01-27T05:21:48.319Z,8.70
2019-01-27T05:24:19.952Z,8.70
2019-01-27T05:26:51.516Z,8.70
2019-01-27T05:29:23.227Z,8.70
2019-01-27T05:31:54.778Z,8.70
2019-01-27T05:34:26.316Z,8.70
2019-01-27T05:36:57.896Z,8.70
2019-01-27T05:39:29.422Z,8.70
2019-01-27T05:42:01.078Z,8.70
2019-01-27T05:44:32.629Z,8.70
2019-01-27T05:47:03.987Z,8.70
2019-01-27T05:49:35.430Z,8.70
2019-01-27T05:52:25.612Z,8.70
2019-01-27T05:54:57.139Z,8.70
2019-01-27T05:57:28.675Z,8.80
2019-01-27T06:00:00.215Z,8.80
2019-01-27T06:02:31.755Z,8.80
2019-01-27T06:05:04.532Z,8.90
2019-01-27T06:07:36.199Z,8.90
2019-01-27T06:10:10.163Z,9.00
2019-01-27T06:12:41.599Z,9.00
2019-01-27T06:15:15.611Z,9.10
2019-01-27T06:17:46.991Z,9.10
2019-01-27T06:20:19.676Z,9.10
2019-01-27T06:22:51.088Z,8.90
2019-01-27T06:25:25.864Z,8.90
2019-01-27T06:27:55.472Z,8.80
2019-01-27T06:30:27.338Z,8.80
2019-01-27T06:33:16.322Z,8.80
2019-01-27T06:35:48.083Z,8.90
2019-01-27T06:38:20.399Z,8.90
2019-01-27T06:40:52.676Z,8.80
2019-01-27T06:43:24.014Z,8.80
2019-01-27T06:45:55.554Z,8.90
2019-01-27T06:48:26.927Z,8.90
2019-01-27T06:50:58.558Z,9.00
2019-01-27T06:53:29.920Z,8.80
2019-01-27T06:56:01.574Z,9.00
2019-01-27T06:58:50.491Z,9.00
2019-01-27T07:01:40.536Z,9.10
2019-01-27T07:04:39.932Z,9.00
2019-01-27T07:07:48.322Z,9.10
2019-01-27T07:10:51.631Z,9.00
2019-01-27T07:13:57.378Z,8.90
2019-01-27T07:17:00.672Z,8.90
2019-01-27T07:19:52.033Z,8.90
2019-01-27T07:22:55.525Z,8.90
2019-01-27T07:25:48.408Z,9.00
2019-01-27T07:28:30.805Z,8.90
2019-01-27T07:31:19.695Z,9.00
2019-01-27T07:34:14.876Z,8.90
2019-01-27T07:37:05.469Z,9.00
2019-01-27T07:39:56.583Z,9.00
2019-01-27T07:42:48.859Z,9.10
2019-01-27T07:45:51.647Z,9.10
2019-01-27T07:48:38.785Z,9.00
2019-01-27T07:51:27.862Z,9.20
2019-01-27T07:54:30.225Z,9.20
2019-01-27T07:57:23.619Z,9.20
2019-01-27T08:00:17.409Z,9.20
2019-01-27T08:03:12.055Z,9.30
2019-01-27T08:06:05.814Z,9.30
2019-01-27T08:08:46.497Z,9.20
2019-01-27T08:11:37.895Z,9.20
2019-01-27T08:14:26.778Z,9.30
2019-01-27T08:17:10.068Z,9.20
2019-01-27T08:19:48.639Z,9.30
2019-01-27T08:22:35.849Z,9.30
2019-01-27T08:25:32.050Z,9.30
2019-01-27T08:28:25.993Z,9.30
2019-01-27T08:31:09.932Z,9.40
2019-01-27T08:33:54.793Z,9.40
2019-01-27T08:36:56.982Z,9.50
2019-01-27T08:39:43.167Z,9.60
2019-01-27T08:42:39.334Z,9.70
2019-01-27T08:45:32.999Z,9.80
2019-01-27T08:48:04.950Z,10.00
2019-01-27T08:50:36.598Z,10.20
2019-01-27T08:53:08.124Z,10.30
2019-01-27T08:55:40.335Z,10.50
2019-01-27T08:58:12.870Z,10.60
2019-01-27T09:00:49.860Z,10.80
2019-01-27T09:03:47.524Z,10.90
2019-01-27T09:06:44.064Z,10.70
2019-01-27T09:09:53.258Z,10.70
2019-01-27T09:12:46.094Z,10.80
2019-01-27T09:15:51.369Z,11.00
2019-01-27T09:18:53.876Z,11.20
2019-01-27T09:21:56.630Z,11.20
2019-01-27T09:24:37.020Z,11.00
2019-01-27T09:27:28.443Z,10.90
2019-01-27T09:30:12.355Z,11.10
2019-01-27T09:33:19.893Z,11.20
2019-01-27T09:36:04.511Z,11.30
2019-01-27T09:38:54.711Z,11.60
2019-01-27T09:41:35.742Z,11.70
2019-01-27T09:44:37.827Z,12.10
2019-01-27T09:47:21.311Z,12.30
2019-01-27T09:50:17.326Z,12.60
2019-01-27T09:53:05.810Z,12.50
2019-01-27T09:56:01.246Z,12.50
2019-01-27T09:58:49.265Z,12.50
2019-01-27T10:01:39.553Z,12.30
2019-01-27T10:04:29.262Z,12.20
2019-01-27T10:07:37.519Z,12.30
2019-01-27T10:10:42.200Z,12.30
2019-01-27T10:13:21.517Z,12.20
2019-01-27T10:16:18.010Z,11.90
2019-01-27T10:18:57.007Z,11.90
2019-01-27T10:21:55.652Z,11.90
2019-01-27T10:24:53.171Z,11.80
2019-01-27T10:27:45.256Z,11.80
2019-01-27T10:30:42.790Z,11.80
2019-01-27T10:33:30.535Z,11.80
2019-01-27T10:36:20.042Z,12.00
2019-01-27T10:39:05.550Z,12.10
2019-01-27T10:41:54.151Z,12.00
2019-01-27T10:44:38.216Z,12.10
2019-01-27T10:47:31.500Z,11.80
2019-01-27T10:50:20.313Z,11.70
2019-01-27T10:53:13.177Z,11.60
2019-01-27T10:56:02.136Z,11.80
2019-01-27T10:59:04.064Z,11.80
2019-01-27T11:01:55.468Z,11.90
2019-01-27T11:04:48.345Z,11.80
2019-01-27T11:07:51.171Z,11.80
2019-01-27T11:11:00.502Z,11.70
2019-01-27T11:14:03.031Z,11.50
2019-01-27T11:17:24.322Z,11.40
2019-01-27T11:20:26.252Z,11.50
2019-01-27T11:23:28.655Z,11.40
2019-01-27T11:26:08.174Z,11.40
2019-01-27T11:28:46.581Z,11.20
2019-01-27T11:31:36.820Z,11.20
2019-01-27T11:34:33.775Z,11.10
2019-01-27T11:37:24.185Z,11.10
2019-01-27T11:40:20.332Z,11.10
2019-01-27T11:43:13.469Z,11.10
2019-01-27T11:46:02.085Z,11.00
2019-01-27T11:48:44.712Z,11.10
2019-01-27T11:51:40.981Z,11.00
2019-01-27T11:54:12.467Z,11.00
2019-01-27T11:56:43.733Z,11.00
2019-01-27T11:59:16.251Z,11.00
2019-01-27T12:01:47.944Z,10.90
2019-01-27T12:04:19.299Z,10.90
2019-01-27T12:06:50.721Z,10.90
2019-01-27T12:09:22.297Z,10.80
2019-01-27T12:11:53.935Z,10.80
2019-01-27T12:14:25.241Z,10.80
2019-01-27T12:16:56.720Z,10.80
2019-01-27T12:19:28.102Z,10.80
2019-01-27T12:22:00.031Z,10.90
2019-01-27T12:24:31.627Z,11.00
2019-01-27T12:27:02.972Z,11.00
2019-01-27T12:29:34.905Z,11.10
2019-01-27T12:32:06.628Z,11.20
2019-01-27T12:34:38.957Z,11.20
2019-01-27T12:37:10.522Z,11.30
2019-01-27T12:39:42.181Z,11.30
2019-01-27T12:42:14.208Z,11.20
2019-01-27T12:44:45.770Z,11.30
2019-01-27T12:47:17.223Z,11.30
2019-01-27T12:49:48.569Z,11.30
2019-01-27T12:52:19.960Z,11.30
2019-01-27T12:55:03.256Z,11.40
2019-01-27T12:57:35.270Z,11.40
2019-01-27T13:00:19.665Z,11.30
2019-01-27T13:02:52.297Z,11.40
2019-01-27T13:05:23.707Z,11.40
2019-01-27T13:07:56.327Z,11.50
2019-01-27T13:10:27.812Z,11.40
2019-01-27T13:12:59.575Z,11.40
2019-01-27T13:15:31.193Z,11.30
2019-01-27T13:18:02.836Z,11.30
2019-01-27T13:20:34.257Z,11.20
2019-01-27T13:23:05.774Z,11.30
2019-01-27T13:25:37.085Z,11.30
2019-01-27T13:28:18.917Z,11.30
2019-01-27T13:30:51.117Z,11.40
2019-01-27T13:33:22.601Z,11.30
2019-01-27T13:35:53.943Z,11.20
2019-01-27T13:38:25.546Z,11.20
2019-01-27T13:40:57.069Z,11.20
2019-01-27T13:43:28.592Z,11.20
2019-01-27T13:46:00.289Z,11.10
2019-01-27T13:48:31.853Z,11.10
2019-01-27T13:51:03.294Z,11.10
2019-01-27T13:53:35.825Z,11.10
2019-01-27T13:56:07.365Z,11.10
2019-01-27T13:58:38.934Z,11.00
2019-01-27T14:01:10.417Z,11.00
2019-01-27T14:03:41.961Z,11.00
2019-01-27T14:06:13.475Z,10.90
2019-01-27T14:08:45.216Z,10.90
2019-01-27T14:11:16.706Z,10.80
2019-01-27T14:13:49.267Z,10.80
2019-01-27T14:16:20.972Z,10.80
2019-01-27T14:18:52.483Z,10.80
2019-01-27T14:21:23.764Z,10.80
2019-01-27T14:23:56.067Z,10.80
2019-01-27T14:26:27.359Z,10.80
2019-01-27T14:28:58.854Z,10.70
2019-01-27T14:31:31.809Z,10.70
2019-01-27T14:34:03.551Z,10.70
2019-01-27T14:36:35.553Z,10.60
2019-01-27T14:39:08.988Z,10.60
2019-01-27T14:41:40.551Z,10.60
2019-01-27T14:44:12.171Z,10.60
2019-01-27T14:46:44.262Z,10.50
2019-01-27T14:49:16.010Z,10.50
2019-01-27T14:51:47.775Z,10.50
2019-01-27T14:54:19.552Z,10.50
2019-01-27T14:56:51.308Z,10.40
2019-01-27T14:59:22.933Z,10.40
2019-01-27T15:01:55.515Z,10.30
2019-01-27T15:04:26.936Z,10.30
2019-01-27T15:06:58.205Z,10.30
2019-01-27T15:09:29.756Z,10.20
2019-01-27T15:12:01.662Z,10.20
2019-01-27T15:14:34.159Z,10.20
2019-01-27T15:17:05.747Z,10.10
2019-01-27T15:19:38.304Z,10.10
2019-01-27T15:22:10.202Z,10.10
2019-01-27T15:24:43.056Z,10.10
2019-01-27T15:27:15.295Z,10.10
2019-01-27T15:29:46.785Z,10.10
2019-01-27T15:32:18.474Z,10.10
2019-01-27T15:34:49.779Z,10.00
2019-01-27T15:37:21.980Z,10.10
2019-01-27T15:39:53.514Z,10.00
2019-01-27T15:42:25.060Z,10.10
2019-01-27T15:44:56.686Z,10.10
2019-01-27T15:47:29.098Z,10.10
2019-01-27T15:50:00.713Z,10.10
2019-01-27T15:52:32.203Z,10.10
2019-01-27T15:55:04.726Z,10.20
2019-01-27T15:57:36.170Z,10.20
2019-01-27T16:00:11.481Z,10.20
2019-01-27T16:02:43.930Z,10.10
2019-01-27T16:05:17.941Z,10.10
2019-01-27T16:07:50.618Z,10.10
2019-01-27T16:10:23.125Z,10.10
2019-01-27T16:12:56.817Z,10.00
2019-01-27T16:15:30.178Z,10.00
2019-01-27T16:18:02.808Z,10.00
2019-01-27T16:20:34.321Z,10.00
2019-01-27T16:23:24.794Z,10.00
2019-01-27T16:25:57.358Z,10.00
2019-01-27T16:28:29.473Z,9.90
2019-01-27T16:31:28.837Z,9.90
2019-01-27T16:34:30.904Z,9.90
2019-01-27T16:37:02.217Z,9.90
2019-01-27T16:39:34.028Z,9.90
2019-01-27T16:42:05.745Z,9.90
2019-01-27T16:44:37.595Z,9.80
2019-01-27T16:47:09.012Z,9.80
2019-01-27T16:49:40.689Z,9.80
2019-01-27T16:52:12.117Z,9.80
2019-01-27T16:54:43.863Z,9.70
2019-01-27T16:57:15.378Z,9.60
2019-01-27T16:59:46.977Z,9.60
2019-01-27T17:02:19.441Z,9.60
2019-01-27T17:04:50.928Z,9.60
2019-01-27T17:07:22.302Z,9.60
2019-01-27T17:09:53.768Z,9.60
2019-01-27T17:12:25.283Z,9.50
2019-01-27T17:14:56.886Z,9.50
2019-01-27T17:17:28.308Z,9.50
2019-01-27T17:20:02.731Z,9.40
2019-01-27T17:22:33.594Z,9.40
2019-01-27T17:25:06.386Z,9.40
2019-01-27T17:27:38.207Z,9.30
2019-01-27T17:30:14.440Z,9.40
2019-01-27T17:32:46.052Z,9.30
2019-01-27T17:35:20.034Z,9.40
2019-01-27T17:37:51.777Z,9.30
2019-01-27T17:40:23.486Z,9.30
2019-01-27T17:42:54.786Z,9.20
2019-01-27T17:45:26.527Z,9.20
2019-01-27T17:47:58.084Z,9.20
2019-01-27T17:50:30.210Z,9.20
2019-01-27T17:53:01.300Z,9.20
2019-01-27T17:55:42.668Z,9.10
2019-01-27T17:58:54.272Z,9.10
2019-01-27T18:01:53.845Z,9.10
2019-01-27T18:04:49.997Z,9.10
2019-01-27T18:07:40.549Z,9.10
2019-01-27T18:10:22.668Z,9.10
2019-01-27T18:13:13.347Z,9.10
2019-01-27T18:15:48.584Z,9.10
2019-01-27T18:18:20.010Z,9.10
2019-01-27T18:20:51.625Z,9.10
2019-01-27T18:23:23.088Z,9.10
2019-01-27T18:25:54.708Z,9.10
2019-01-27T18:28:38.076Z,9.10
2019-01-27T18:31:10.529Z,9.10
2019-01-27T18:33:42.298Z,9.10
2019-01-27T18:36:14.327Z,9.10
2019-01-27T18:38:45.826Z,9.00
2019-01-27T18:41:17.515Z,9.00
2019-01-27T18:43:49.547Z,9.10
2019-01-27T18:46:21.372Z,9.10
2019-01-27T18:48:52.807Z,9.10
2019-01-27T18:51:27.620Z,9.10
2019-01-27T18:54:21.044Z,9.00
2019-01-27T18:57:20.643Z,9.00
2019-01-27T19:00:22.997Z,9.00
2019-01-27T19:03:16.183Z,9.00
2019-01-27T19:05:57.081Z,9.00
2019-01-27T19:09:05.554Z,9.00
2019-01-27T19:12:12.212Z,8.90
2019-01-27T19:15:05.652Z,8.90
2019-01-27T19:18:05.326Z,8.90
2019-01-27T19:21:02.264Z,8.90
2019-01-27T19:24:05.759Z,9.00
2019-01-27T19:26:58.359Z,8.90
2019-01-27T19:29:44.303Z,8.90
2019-01-27T19:32:31.647Z,8.90
2019-01-27T19:35:20.609Z,8.90
2019-01-27T19:38:00.563Z,8.90
2019-01-27T19:40:47.774Z,8.90
2019-01-27T19:43:44.109Z,8.90
2019-01-27T19:46:39.458Z,8.90
2019-01-27T19:49:38.614Z,9.00
2019-01-27T19:52:22.189Z,9.00
2019-01-27T19:55:22.704Z,9.00
2019-01-27T19:58:20.195Z,9.00
2019-01-27T20:01:23.883Z,8.90
2019-01-27T20:04:04.003Z,8.90
2019-01-27T20:06:46.179Z,8.80
2019-01-27T20:09:49.520Z,8.70
2019-01-27T20:12:36.761Z,8.70
2019-01-27T20:15:32.732Z,8.60
2019-01-27T20:18:15.172Z,8.50
2019-01-27T20:21:09.848Z,8.40
2019-01-27T20:23:50.545Z,8.40
2019-01-27T20:26:53.440Z,8.30
2019-01-27T20:29:56.117Z,8.30
2019-01-27T20:32:45.998Z,8.20
2019-01-27T20:35:40.369Z,8.10
2019-01-27T20:38:25.904Z,8.00
2019-01-27T20:41:25.960Z,7.90
2019-01-27T20:44:08.599Z,7.80
2019-01-27T20:46:55.807Z,7.80
2019-01-27T20:49:38.043Z,7.80
2019-01-27T20:52:23.695Z,7.70
2019-01-27T20:55:14.689Z,7.60
2019-01-27T20:57:59.503Z,7.50
2019-01-27T21:00:54.192Z,7.40
2019-01-27T21:03:36.506Z,7.30
2019-01-27T21:06:34.064Z,7.20
2019-01-27T21:09:23.735Z,7.20
2019-01-27T21:12:24.032Z,7.20
2019-01-27T21:15:03.468Z,7.10
2019-01-27T21:18:02.682Z,7.00
2019-01-27T21:20:34.861Z,7.00
2019-01-27T21:23:06.844Z,7.00
2019-01-27T21:25:38.834Z,7.00
2019-01-27T21:28:10.217Z,6.90
2019-01-27T21:30:41.538Z,6.90
2019-01-27T21:33:13.176Z,6.80
2019-01-27T21:35:44.431Z,6.90
2019-01-27T21:38:15.731Z,6.90
2019-01-27T21:40:47.212Z,6.90
2019-01-27T21:43:19.341Z,6.90
2019-01-27T21:45:50.790Z,6.90
2019-01-27T21:48:22.331Z,6.90
2019-01-27T21:50:53.925Z,6.90
2019-01-27T21:53:25.599Z,6.90
2019-01-27T21:55:57.323Z,6.80
2019-01-27T21:58:28.823Z,6.80
2019-01-27T22:01:00.463Z,6.80
2019-01-27T22:03:31.919Z,6.70
2019-01-27T22:06:03.199Z,6.70
2019-01-27T22:08:35.752Z,6.70
2019-01-27T22:11:07.379Z,6.60
2019-01-27T22:13:38.911Z,6.60
2019-01-27T22:16:10.320Z,6.60
2019-01-27T22:18:41.697Z,6.50
2019-01-27T22:21:13.131Z,6.50
2019-01-27T22:23:44.740Z,6.40
2019-01-27T22:26:16.179Z,6.40
2019-01-27T22:28:47.751Z,6.40
2019-01-27T22:31:19.313Z,6.30
2019-01-27T22:33:50.831Z,6.30
2019-01-27T22:36:22.684Z,6.20
2019-01-27T22:38:54.314Z,6.20
2019-01-27T22:41:25.846Z,6.30
2019-01-27T22:43:57.396Z,6.20
2019-01-27T22:46:28.959Z,6.20
2019-01-27T22:49:00.384Z,6.10
2019-01-27T22:51:31.908Z,6.10
2019-01-27T22:54:03.577Z,6.00
2019-01-27T22:56:36.226Z,6.00
2019-01-27T22:59:07.761Z,5.90
2019-01-27T23:01:39.412Z,5.90
2019-01-27T23:04:11.346Z,6.00
2019-01-27T23:06:42.922Z,6.00
2019-01-27T23:09:18.645Z,5.80
2019-01-27T23:11:50.297Z,5.80
2019-01-27T23:14:21.760Z,5.70
2019-01-27T23:16:53.471Z,5.70
2019-01-27T23:19:25.264Z,5.70
2019-01-27T23:21:56.795Z,5.60
2019-01-27T23:24:28.175Z,5.60
2019-01-27T23:26:59.834Z,5.60
2019-01-27T23:29:31.548Z,5.60
2019-01-27T23:32:03.102Z,5.50
2019-01-27T23:34:34.662Z,5.50
2019-01-27T23:37:06.002Z,5.50
2019-01-27T23:39:37.275Z,5.50
2019-01-27T23:42:08.891Z,5.50
2019-01-27T23:44:40.447Z,5.70
2019-01-27T23:47:12.036Z,5.50
2019-01-27T23:49:43.449Z,5.50
2019-01-27T23:52:15.168Z,5.50
2019-01-27T23:54:48.225Z,5.50
2019-01-27T23:57:19.857Z,5.50
2019-01-27T23:59:52.036Z,5.60
